createdAt,value
2019-04-14T00:03:24.451Z,22.20
2019-04-14T00:05:58.415Z,20.88
2019-04-14T00:08:28.370Z,22.42
2019-04-14T00:10:59.469Z,20.90
2019-04-14T00:13:31.090Z,22.77
2019-04-14T00:16:11.737Z,21.20
2019-04-14T00:18:44.652Z,21.75
2019-04-14T00:21:19.384Z,20.55
2019-04-14T00:23:54.530Z,22.55
2019-04-14T00:29:21.644Z,22.22
2019-04-14T00:31:54.192Z,23.60
2019-04-14T00:34:44.206Z,24.30
2019-04-14T00:44:16.761Z,22.02
2019-04-14T00:46:51.470Z,23.02
2019-04-14T00:51:02.664Z,24.25
2019-04-14T00:52:01.467Z,23.50
2019-04-14T00:54:30.354Z,23.85
2019-04-14T00:57:03.215Z,22.77
2019-04-14T00:59:33.397Z,23.35
2019-04-14T01:02:03.484Z,23.55
2019-04-14T01:11:15.955Z,25.08
2019-04-14T01:13:48.626Z,24.50
2019-04-14T01:19:13.280Z,25.02
2019-04-14T01:21:46.504Z,25.52
2019-04-14T01:24:23.043Z,25.45
2019-04-14T01:26:53.525Z,23.25
2019-04-14T01:29:27.678Z,24.55
2019-04-14T01:32:04.432Z,24.27
2019-04-14T01:34:39.521Z,23.55
2019-04-14T01:37:13.668Z,24.10
2019-04-14T01:40:34.227Z,24.60
2019-04-14T01:43:10.515Z,25.52
2019-04-14T01:48:41.028Z,22.65
2019-04-14T01:52:05.894Z,24.72
2019-04-14T01:54:45.363Z,24.60
2019-04-14T02:00:18.443Z,25.45
2019-04-14T02:05:53.936Z,23.62
2019-04-14T02:11:23.033Z,23.95
2019-04-14T02:16:54.160Z,25.08
2019-04-14T02:19:24.155Z,24.92
2019-04-14T02:21:58.385Z,23.98
2019-04-14T02:24:28.933Z,25.72
2019-04-14T02:27:53.664Z,26.52
2019-04-14T02:30:28.432Z,26.00
2019-04-14T02:33:23.604Z,24.98
2019-04-14T02:36:07.945Z,27.48
2019-04-14T02:39:13.553Z,25.70
2019-04-14T02:46:21.928Z,26.07
2019-04-14T02:54:46.738Z,24.10
2019-04-14T02:57:10.086Z,25.20
2019-04-14T02:59:44.655Z,25.43
2019-04-14T03:04:50.857Z,26.70
2019-04-14T03:08:08.430Z,26.75
2019-04-14T03:10:45.952Z,26.42
2019-04-14T03:13:15.316Z,25.17
2019-04-14T03:15:41.745Z,25.65
2019-04-14T03:24:13.012Z,24.72
2019-04-14T03:26:49.292Z,25.45
2019-04-14T03:29:26.885Z,25.02
2019-04-14T03:32:11.156Z,24.85
2019-04-14T03:35:58.090Z,24.30
2019-04-14T03:37:56.670Z,25.17
2019-04-14T03:40:25.654Z,25.20
2019-04-14T03:43:09.969Z,23.38
2019-04-14T03:53:22.031Z,25.40
2019-04-14T03:55:54.339Z,25.10
2019-04-14T03:58:22.486Z,24.07
2019-04-14T04:00:53.337Z,25.02
2019-04-14T04:03:25.964Z,25.88
2019-04-14T04:05:58.618Z,27.25
2019-04-14T04:08:29.140Z,26.35
2019-04-14T04:11:03.958Z,27.93
2019-04-14T04:13:36.632Z,27.20
2019-04-14T04:16:22.272Z,27.80
2019-04-14T04:19:07.372Z,26.23
2019-04-14T04:21:35.724Z,27.55
2019-04-14T04:24:10.774Z,27.05
2019-04-14T04:26:47.150Z,28.27
2019-04-14T04:29:30.947Z,27.30
2019-04-14T04:32:10.099Z,26.15
2019-04-14T04:34:46.639Z,28.85
2019-04-14T04:37:19.981Z,26.82
2019-04-14T04:39:56.170Z,24.50
2019-04-14T04:42:26.493Z,26.35
2019-04-14T04:44:59.648Z,29.02
2019-04-14T04:47:29.508Z,29.67
2019-04-14T04:50:00.086Z,29.20
2019-04-14T04:52:32.243Z,29.07
2019-04-14T04:55:02.706Z,26.95
2019-04-14T04:57:35.925Z,28.15
2019-04-14T05:00:09.559Z,28.62
2019-04-14T05:02:41.823Z,28.15
2019-04-14T05:05:43.400Z,27.42
2019-04-14T05:08:17.310Z,26.65
2019-04-14T05:10:52.442Z,29.48
2019-04-14T05:13:23.304Z,28.30
2019-04-14T05:15:57.507Z,29.82
2019-04-14T05:18:31.311Z,31.30
2019-04-14T05:21:02.010Z,31.85
2019-04-14T05:23:34.403Z,31.57
2019-04-14T05:26:08.912Z,28.83
2019-04-14T05:28:39.658Z,31.95
2019-04-14T05:31:09.811Z,30.70
2019-04-14T05:33:51.176Z,30.05
2019-04-14T05:36:26.015Z,31.60
2019-04-14T05:38:56.000Z,29.48
2019-04-14T05:41:29.337Z,28.95
2019-04-14T05:44:06.093Z,30.82
2019-04-14T05:46:38.220Z,29.72
2019-04-14T05:49:24.544Z,30.32
2019-04-14T05:51:46.286Z,30.75
2019-04-14T05:54:17.156Z,31.55
2019-04-14T05:56:52.255Z,28.98
2019-04-14T05:59:25.007Z,29.67
2019-04-14T06:01:54.592Z,30.15
2019-04-14T06:04:26.717Z,27.62
2019-04-14T06:07:00.458Z,28.70
2019-04-14T06:09:31.501Z,28.40
2019-04-14T06:12:04.315Z,28.32
2019-04-14T06:14:39.097Z,29.52
2019-04-14T06:17:13.467Z,26.75
2019-04-14T06:19:55.114Z,28.83
2019-04-14T06:22:26.143Z,26.30
2019-04-14T06:24:58.305Z,26.15
2019-04-14T06:27:30.209Z,26.65
2019-04-14T06:30:20.250Z,25.37
2019-04-14T06:32:53.800Z,24.20
2019-04-14T06:35:41.342Z,24.12
2019-04-14T06:38:18.811Z,23.42
2019-04-14T06:41:02.794Z,23.07
2019-04-14T06:43:26.939Z,22.80
2019-04-14T06:46:00.234Z,21.75
2019-04-14T06:48:34.720Z,21.35
2019-04-14T06:51:06.313Z,23.00
2019-04-14T06:53:37.854Z,21.07
2019-04-14T06:56:10.257Z,21.93
2019-04-14T06:58:44.574Z,22.30
2019-04-14T07:01:19.907Z,20.08
2019-04-14T07:03:49.653Z,19.87
2019-04-14T07:06:21.109Z,19.90
2019-04-14T07:08:52.449Z,21.68
2019-04-14T07:11:23.250Z,20.37
2019-04-14T07:13:54.877Z,21.25
2019-04-14T07:16:30.743Z,19.70
2019-04-14T07:19:00.171Z,18.55
2019-04-14T07:21:35.132Z,19.92
2019-04-14T07:24:08.606Z,21.35
2019-04-14T07:26:43.248Z,20.17
2019-04-14T07:29:17.446Z,20.72
2019-04-14T07:32:01.322Z,21.75
2019-04-14T07:34:33.073Z,19.67
2019-04-14T07:37:18.929Z,20.60
2019-04-14T07:39:59.202Z,21.77
2019-04-14T07:42:39.833Z,21.00
2019-04-14T07:45:15.904Z,22.55
2019-04-14T07:47:48.300Z,21.50
2019-04-14T07:50:44.178Z,21.80
2019-04-14T07:53:36.157Z,20.72
2019-04-14T07:56:15.414Z,23.42
2019-04-14T07:58:55.513Z,23.35
2019-04-14T08:01:35.295Z,22.87
2019-04-14T08:04:07.650Z,23.10
2019-04-14T08:06:43.776Z,22.77
2019-04-14T08:09:16.636Z,24.20
2019-04-14T08:11:56.603Z,24.80
2019-04-14T08:14:29.960Z,24.60
2019-04-14T08:17:02.502Z,25.68
2019-04-14T08:19:35.714Z,26.25
2019-04-14T08:22:15.393Z,25.45
2019-04-14T08:24:49.765Z,24.30
2019-04-14T08:27:25.533Z,26.02
2019-04-14T08:29:53.003Z,25.48
2019-04-14T08:32:25.508Z,25.05
2019-04-14T08:35:01.636Z,22.77
2019-04-14T08:37:37.588Z,25.23
2019-04-14T08:40:10.130Z,23.40
2019-04-14T08:42:49.079Z,22.77
2019-04-14T08:45:40.721Z,23.80
2019-04-14T08:48:23.880Z,23.70
2019-04-14T08:51:02.767Z,24.30
2019-04-14T08:53:58.021Z,24.53
2019-04-14T08:56:34.762Z,23.47
2019-04-14T08:59:24.557Z,23.27
2019-04-14T09:01:56.474Z,23.37
2019-04-14T09:04:44.089Z,22.17
2019-04-14T09:07:24.176Z,24.57
2019-04-14T09:09:57.077Z,22.97
2019-04-14T09:12:35.232Z,22.53
2019-04-14T09:15:10.228Z,21.53
2019-04-14T09:17:40.130Z,22.75
2019-04-14T09:20:16.244Z,20.57
2019-04-14T09:23:00.096Z,21.20
2019-04-14T09:25:17.587Z,22.47
2019-04-14T09:27:52.485Z,21.90
2019-04-14T09:30:35.286Z,22.80
2019-04-14T09:33:05.948Z,22.07
2019-04-14T09:35:38.817Z,21.23
2019-04-14T09:38:09.181Z,23.60
2019-04-14T09:40:40.915Z,21.67
2019-04-14T09:43:15.410Z,21.87
2019-04-14T09:45:49.076Z,21.60
2019-04-14T09:48:18.884Z,21.73
2019-04-14T09:51:04.202Z,20.57
2019-04-14T09:53:30.362Z,20.57
2019-04-14T09:56:10.596Z,20.37
2019-04-14T09:58:45.559Z,20.00
2019-04-14T10:01:16.528Z,20.67
2019-04-14T10:03:46.891Z,20.90
2019-04-14T10:06:17.390Z,19.67
2019-04-14T10:08:47.185Z,19.93
2019-04-14T10:11:20.012Z,20.13
2019-04-14T10:13:51.324Z,20.13
2019-04-14T10:16:23.562Z,19.53
2019-04-14T10:18:55.854Z,19.67
2019-04-14T10:21:25.718Z,19.53
2019-04-14T10:23:59.096Z,20.00
2019-04-14T10:26:28.074Z,20.80
2019-04-14T10:28:57.454Z,19.37
2019-04-14T10:31:30.740Z,19.07
2019-04-14T10:34:04.345Z,19.17
2019-04-14T10:36:41.676Z,18.43
2019-04-14T10:39:14.251Z,19.43
2019-04-14T10:41:43.622Z,19.37
2019-04-14T10:44:15.822Z,19.50
2019-04-14T10:46:49.418Z,20.10
2019-04-14T10:49:21.350Z,19.20
2019-04-14T10:51:55.309Z,18.87
2019-04-14T10:54:32.032Z,17.97
2019-04-14T10:57:02.378Z,16.87
2019-04-14T10:59:47.866Z,17.13
2019-04-14T11:02:23.335Z,17.73
2019-04-14T11:05:05.963Z,16.63
2019-04-14T11:07:36.709Z,16.67
2019-04-14T11:10:08.249Z,17.10
2019-04-14T11:12:51.464Z,16.70
2019-04-14T11:15:21.605Z,18.83
2019-04-14T11:17:52.089Z,18.07
2019-04-14T11:20:28.945Z,17.97
2019-04-14T11:23:03.492Z,17.73
2019-04-14T11:25:30.636Z,17.37
2019-04-14T11:28:05.060Z,17.73
2019-04-14T11:30:38.183Z,16.63
2019-04-14T11:33:17.968Z,16.07
2019-04-14T11:36:04.182Z,17.77
2019-04-14T11:38:39.503Z,17.43
2019-04-14T11:41:13.305Z,16.67
2019-04-14T11:43:45.107Z,16.57
2019-04-14T11:53:27.410Z,16.20
2019-04-14T11:56:02.533Z,12.83
2019-04-14T11:58:59.198Z,15.80
2019-04-14T12:01:43.404Z,16.13
2019-04-14T12:04:15.285Z,15.17
2019-04-14T12:07:02.494Z,17.40
2019-04-14T12:12:25.089Z,16.70
2019-04-14T12:14:54.332Z,16.57
2019-04-14T12:17:49.563Z,17.33
2019-04-14T12:20:24.945Z,15.67
2019-04-14T12:22:58.581Z,15.70
2019-04-14T12:25:31.616Z,13.90
2019-04-14T12:28:07.093Z,13.70
2019-04-14T12:34:00.097Z,14.07
2019-04-14T12:37:22.681Z,13.70
2019-04-14T12:39:55.349Z,14.07
2019-04-14T12:45:38.006Z,11.53
2019-04-14T12:48:43.671Z,12.13
2019-04-14T12:52:21.341Z,12.10
2019-04-14T12:53:45.858Z,13.87
2019-04-14T12:57:06.498Z,14.10
2019-04-14T12:59:39.334Z,13.90
2019-04-14T13:05:13.877Z,13.97
2019-04-14T13:07:42.863Z,14.47
2019-04-14T13:10:22.247Z,14.33
2019-04-14T13:12:53.989Z,13.83
2019-04-14T13:15:37.856Z,13.17
2019-04-14T13:18:07.493Z,10.00
2019-04-14T13:20:38.880Z,12.53
2019-04-14T13:26:37.908Z,12.93
2019-04-14T13:29:12.462Z,13.67
2019-04-14T13:31:44.624Z,12.57
2019-04-14T13:34:13.529Z,13.23
2019-04-14T13:36:42.781Z,13.13
2019-04-14T13:39:12.816Z,13.03
2019-04-14T13:41:47.181Z,14.17
2019-04-14T13:44:17.815Z,13.77
2019-04-14T13:54:00.247Z,13.30
2019-04-14T13:56:32.577Z,12.63
2019-04-14T13:59:02.330Z,13.07
2019-04-14T14:01:31.556Z,13.03
2019-04-14T14:04:07.697Z,13.20
2019-04-14T14:07:35.537Z,12.13
2019-04-14T14:10:08.954Z,12.40
2019-04-14T14:13:32.022Z,14.10
2019-04-14T14:16:15.954Z,11.70
2019-04-14T14:19:26.722Z,13.80
2019-04-14T14:22:12.579Z,12.97
2019-04-14T14:24:46.812Z,13.03
2019-04-14T14:27:20.761Z,12.30
2019-04-14T14:29:50.558Z,11.90
2019-04-14T14:35:24.254Z,12.20
2019-04-14T14:37:53.564Z,11.77
2019-04-14T14:40:34.643Z,10.30
2019-04-14T14:43:03.678Z,11.30
2019-04-14T14:46:30.741Z,10.60
2019-04-14T14:49:17.937Z,11.90
2019-04-14T14:51:56.132Z,11.50
2019-04-14T14:54:27.310Z,11.30
2019-04-14T14:56:56.543Z,12.77
2019-04-14T15:00:09.140Z,11.27
2019-04-14T15:02:40.043Z,10.93
2019-04-14T15:05:09.546Z,10.47
2019-04-14T15:07:48.822Z,10.47
2019-04-14T15:10:21.227Z,10.20
2019-04-14T15:13:17.504Z,10.77
2019-04-14T15:15:47.981Z,10.37
2019-04-14T15:18:37.256Z,11.77
2019-04-14T15:21:12.784Z,10.60
2019-04-14T15:23:46.898Z,10.07
2019-04-14T15:26:16.364Z,9.10
2019-04-14T15:28:45.603Z,10.13
2019-04-14T15:31:18.879Z,10.33
2019-04-14T15:34:26.340Z,9.97
2019-04-14T15:37:00.925Z,10.43
2019-04-14T15:39:37.387Z,9.90
2019-04-14T15:42:10.916Z,10.30
2019-04-14T15:44:51.062Z,10.47
2019-04-14T15:50:16.366Z,9.03
2019-04-14T15:53:17.784Z,10.07
2019-04-14T15:55:50.492Z,10.53
2019-04-14T15:59:12.560Z,9.83
2019-04-14T16:01:02.960Z,11.17
2019-04-14T16:03:34.250Z,10.40
2019-04-14T16:06:51.908Z,9.07
2019-04-14T16:09:28.918Z,10.13
2019-04-14T16:15:12.520Z,10.37
2019-04-14T16:20:41.217Z,10.93
2019-04-14T16:26:46.486Z,11.20
2019-04-14T16:32:29.097Z,8.73
2019-04-14T16:44:12.418Z,10.17
2019-04-14T16:49:07.439Z,9.27
2019-04-14T16:51:40.933Z,9.70
2019-04-14T16:54:30.558Z,10.40
2019-04-14T17:00:05.551Z,10.10
2019-04-14T17:05:26.948Z,10.87
2019-04-14T17:08:08.363Z,10.80
2019-04-14T17:10:45.567Z,10.97
2019-04-14T17:13:18.473Z,10.57
2019-04-14T17:16:05.583Z,9.73
2019-04-14T17:19:31.848Z,10.20
2019-04-14T17:22:25.316Z,9.10
2019-04-14T17:28:04.424Z,11.07
2019-04-14T17:30:56.291Z,9.97
2019-04-14T17:33:44.158Z,11.20
2019-04-14T17:39:33.376Z,9.33
2019-04-14T17:42:06.406Z,10.60
2019-04-14T17:44:47.771Z,10.33
2019-04-14T17:47:23.696Z,8.60
2019-04-14T17:50:03.999Z,9.53
2019-04-14T17:52:39.787Z,10.60
2019-04-14T17:55:50.251Z,9.60
2019-04-14T17:58:34.231Z,10.30
2019-04-14T18:04:34.352Z,9.97
2019-04-14T18:07:48.909Z,9.83
2019-04-14T18:10:35.059Z,10.30
2019-04-14T18:15:47.344Z,10.47
2019-04-14T18:18:19.637Z,10.30
2019-04-14T18:20:58.125Z,10.50
2019-04-14T18:23:32.001Z,11.00
2019-04-14T18:28:59.419Z,10.47
2019-04-14T18:31:36.148Z,10.70
2019-04-14T18:34:28.322Z,11.07
2019-04-14T18:39:58.654Z,11.73
2019-04-14T18:45:34.142Z,11.10
2019-04-14T18:50:59.874Z,11.07
2019-04-14T18:56:32.030Z,11.47
2019-04-14T19:02:17.458Z,10.53
2019-04-14T19:04:56.689Z,11.17
2019-04-14T19:07:32.684Z,10.67
2019-04-14T19:10:08.997Z,10.60
2019-04-14T19:13:28.141Z,11.53
2019-04-14T19:16:09.256Z,12.57
2019-04-14T19:19:25.291Z,10.70
2019-04-14T19:22:09.126Z,11.83
2019-04-14T19:24:42.243Z,10.80
2019-04-14T19:28:00.762Z,12.20
2019-04-14T19:30:35.573Z,12.53
2019-04-14T19:36:00.215Z,12.80
2019-04-14T19:38:38.955Z,13.00
2019-04-14T19:44:06.063Z,13.07
2019-04-14T19:47:17.492Z,11.83
2019-04-14T19:49:59.142Z,12.80
2019-04-14T19:55:37.151Z,11.77
2019-04-14T19:58:12.229Z,12.10
2019-04-14T20:00:43.159Z,12.23
2019-04-14T20:03:16.802Z,12.90
2019-04-14T20:08:52.358Z,11.67
2019-04-14T20:11:26.114Z,11.40
2019-04-14T20:14:14.188Z,12.90
2019-04-14T20:16:52.078Z,12.00
2019-04-14T20:27:22.523Z,11.90
2019-04-14T20:30:01.077Z,11.83
2019-04-14T20:32:36.602Z,12.37
2019-04-14T20:35:39.948Z,12.20
2019-04-14T20:38:12.666Z,13.07
2019-04-14T20:40:45.233Z,12.50
2019-04-14T20:43:24.684Z,12.23
2019-04-14T20:48:58.537Z,12.03
2019-04-14T20:54:24.136Z,11.60
2019-04-14T20:59:59.405Z,11.50
2019-04-14T21:05:32.539Z,12.23
2019-04-14T21:11:03.091Z,11.57
2019-04-14T21:13:39.095Z,12.68
2019-04-14T21:16:31.379Z,12.13
2019-04-14T21:21:51.567Z,12.82
2019-04-14T21:27:39.337Z,12.07
2019-04-14T21:30:50.236Z,12.70
2019-04-14T21:33:36.214Z,12.35
2019-04-14T21:39:36.255Z,12.07
2019-04-14T21:42:07.541Z,12.07
2019-04-14T21:44:49.078Z,11.17
2019-04-14T21:47:24.389Z,12.18
2019-04-14T21:52:49.795Z,10.80
2019-04-14T21:58:33.362Z,12.97
2019-04-14T22:04:45.992Z,10.78
2019-04-14T22:10:26.073Z,11.60
2019-04-14T22:13:08.453Z,11.28
2019-04-14T22:15:41.247Z,11.63
2019-04-14T22:18:12.674Z,11.63
2019-04-14T22:21:39.219Z,10.78
2019-04-14T22:24:17.938Z,11.15
2019-04-14T22:26:43.851Z,10.55
2019-04-14T22:29:58.047Z,11.22
2019-04-14T22:32:30.625Z,11.80
2019-04-14T22:35:05.751Z,10.82
2019-04-14T22:37:37.035Z,11.30
2019-04-14T22:40:09.428Z,11.65
2019-04-14T22:43:13.655Z,11.33
2019-04-14T22:45:52.779Z,12.05
2019-04-14T22:49:13.791Z,11.48
2019-04-14T22:52:01.459Z,12.15
2019-04-14T22:54:30.048Z,13.60
2019-04-14T22:57:35.821Z,12.03
2019-04-14T23:00:14.750Z,12.93
2019-04-14T23:05:36.550Z,10.90
2019-04-14T23:11:13.204Z,11.03
2019-04-14T23:17:00.272Z,12.03
2019-04-14T23:19:35.075Z,12.07
2019-04-14T23:22:17.017Z,12.00
2019-04-14T23:24:50.073Z,12.20
2019-04-14T23:27:21.392Z,11.25
2019-04-14T23:29:51.092Z,11.90
2019-04-14T23:35:13.939Z,11.25
2019-04-14T23:37:46.137Z,11.22
2019-04-14T23:40:26.333Z,11.83
2019-04-14T23:43:00.098Z,11.35
2019-04-14T23:46:02.704Z,11.33
2019-04-14T23:48:34.229Z,11.15
2019-04-14T23:51:07.056Z,10.98
2019-04-14T23:53:39.608Z,10.98
2019-04-14T23:56:14.035Z,10.75
2019-04-14T23:59:28.514Z,10.80
